Time;durP1;ratioP1;P1;durP2;ratioP2;P2;SDS_P1;SDS_P2;PMS_P1;PMS_P2;Temp;Humidity;BMP_temperature;BMP_pressure;BME280_temperature;BME280_humidity;BME280_pressure;Samples;Min_cycle;Max_cycle;Signal;HPM_P1;HPM_P2
2022/11/25 00:01:02;;;;;;;3.20;1.80;;;20.70;58.50;;;;;;5117354;27;20476;-64
2022/11/25 00:03:27;;;;;;;3.13;1.83;;;20.70;58.50;;;;;;5121988;27;20059;-65
2022/11/25 00:05:53;;;;;;;2.67;1.73;;;20.70;58.50;;;;;;5118983;27;20910;-63
2022/11/25 00:08:18;;;;;;;3.25;1.90;;;20.70;58.50;;;;;;5112340;27;20382;-65
2022/11/25 00:10:44;;;;;;;3.25;1.80;;;20.60;58.50;;;;;;5121994;27;20015;-66
2022/11/25 00:13:10;;;;;;;3.08;1.95;;;20.60;58.50;;;;;;5118351;27;20117;-65
2022/11/25 00:15:35;;;;;;;2.92;1.92;;;20.60;58.60;;;;;;5117467;27;20529;-65
2022/11/25 00:18:01;;;;;;;4.10;1.90;;;20.60;58.60;;;;;;5122760;27;20036;-65
2022/11/25 00:20:26;;;;;;;2.75;1.85;;;20.60;58.60;;;;;;5120687;27;20024;-65
2022/11/25 00:22:52;;;;;;;2.80;1.80;;;20.60;58.60;;;;;;5121424;27;20470;-65
2022/11/25 00:25:17;;;;;;;2.75;1.60;;;20.60;58.60;;;;;;5119073;28;20027;-65
2022/11/25 00:27:43;;;;;;;2.63;1.73;;;20.50;58.60;;;;;;5119291;27;20343;-65
2022/11/25 00:30:09;;;;;;;2.97;1.80;;;20.50;58.50;;;;;;5122042;27;20122;-65
2022/11/25 00:32:35;;;;;;;2.63;1.67;;;20.50;58.50;;;;;;5122718;28;20486;-65
2022/11/25 00:35:00;;;;;;;2.53;1.55;;;20.50;58.50;;;;;;5118394;28;20023;-65
2022/11/25 00:37:26;;;;;;;2.40;1.58;;;20.50;58.50;;;;;;5119233;28;20501;-65
2022/11/25 00:39:51;;;;;;;3.28;1.70;;;20.50;58.60;;;;;;5120866;28;20023;-65
2022/11/25 00:45:01;;;;;;;2.70;1.80;;;20.50;58.60;;;;;;5117851;28;20035;-65
2022/11/25 00:47:28;;;;;;;2.65;1.70;;;20.50;58.60;;;;;;5113087;28;20024;-65
2022/11/25 00:49:53;;;;;;;3.08;1.83;;;20.50;58.60;;;;;;5117415;28;20058;-65
2022/11/25 00:52:22;;;;;;;2.88;1.90;;;20.50;58.60;;;;;;5119033;28;20085;-67
2022/11/25 00:54:48;;;;;;;2.40;1.67;;;20.40;58.60;;;;;;5118274;28;20027;-67
2022/11/25 00:57:16;;;;;;;2.63;1.70;;;20.40;58.60;;;;;;5116321;28;20024;-65
2022/11/25 00:59:42;;;;;;;2.97;1.90;;;20.40;58.60;;;;;;5116050;28;20072;-65
2022/11/25 01:02:09;;;;;;;2.45;1.67;;;20.40;58.60;;;;;;5119482;28;20035;-64
2022/11/25 01:04:34;;;;;;;3.28;1.90;;;20.40;58.70;;;;;;5117060;28;20035;-64
2022/11/25 01:07:01;;;;;;;2.95;1.70;;;20.40;58.70;;;;;;5116252;28;20064;-66
2022/11/25 01:09:27;;;;;;;2.67;1.85;;;20.40;58.70;;;;;;5121234;28;20031;-64
2022/11/25 01:11:53;;;;;;;3.13;1.95;;;20.40;58.70;;;;;;5119630;28;20902;-64
2022/11/25 01:14:20;;;;;;;2.80;1.90;;;20.40;58.70;;;;;;5120200;28;20033;-64
2022/11/25 01:16:46;;;;;;;2.60;1.70;;;20.30;58.60;;;;;;5119668;28;20024;-64
2022/11/25 01:19:13;;;;;;;2.35;1.55;;;20.30;58.70;;;;;;5119973;28;20069;-64
2022/11/25 01:21:39;;;;;;;2.70;1.80;;;20.30;58.70;;;;;;5119242;27;20471;-64
2022/11/25 01:24:05;;;;;;;2.55;1.60;;;20.30;58.70;;;;;;5122475;27;20031;-65
2022/11/25 01:26:32;;;;;;;2.63;1.60;;;20.30;58.70;;;;;;5120329;27;20019;-65
2022/11/25 01:28:59;;;;;;;2.70;1.67;;;20.30;58.70;;;;;;5123100;27;20058;-65
2022/11/25 01:31:28;;;;;;;2.60;1.60;;;20.30;58.70;;;;;;5122958;27;20394;-64
2022/11/25 01:33:56;;;;;;;2.67;1.50;;;20.30;58.80;;;;;;5120412;27;20095;-64
2022/11/25 01:36:23;;;;;;;2.50;1.57;;;20.30;58.80;;;;;;5120467;27;20031;-64
2022/11/25 01:38:51;;;;;;;2.30;1.60;;;20.30;58.80;;;;;;5119335;27;20024;-64
2022/11/25 01:41:17;;;;;;;2.70;1.80;;;20.30;58.80;;;;;;5118922;27;20564;-65
2022/11/25 01:43:43;;;;;;;2.50;1.60;;;20.20;58.80;;;;;;5118324;27;20036;-64
2022/11/25 01:46:28;;;;;;;2.40;1.70;;;20.20;58.80;;;;;;5119208;27;20099;-65
2022/11/25 01:49:00;;;;;;;2.42;1.60;;;20.20;58.80;;;;;;5122189;27;20026;-65
2022/11/25 01:51:37;;;;;;;2.40;1.60;;;20.20;58.80;;;;;;5122677;27;20038;-65
2022/11/25 01:54:05;;;;;;;2.70;1.75;;;20.20;58.80;;;;;;5122165;27;20389;-65
2022/11/25 01:56:38;;;;;;;2.28;1.67;;;20.20;59.30;;;;;;5120130;27;20042;-65
2022/11/25 01:59:04;;;;;;;2.38;1.58;;;20.20;58.80;;;;;;5125665;27;20492;-65
2022/11/25 02:01:29;;;;;;;2.55;1.60;;;20.20;58.80;;;;;;5124391;27;20020;-65
2022/11/25 02:03:57;;;;;;;2.75;1.70;;;20.20;58.80;;;;;;5123202;27;20031;-65
2022/11/25 02:06:26;;;;;;;2.40;1.50;;;20.20;58.80;;;;;;5125317;27;20018;-65
2022/11/25 02:09:01;;;;;;;2.33;1.50;;;20.10;58.80;;;;;;5122861;27;20027;-65
2022/11/25 02:11:29;;;;;;;2.00;1.42;;;20.10;58.80;;;;;;5124606;27;20486;-65
2022/11/25 02:13:57;;;;;;;2.65;1.88;;;20.10;58.90;;;;;;5119823;27;20019;-65
2022/11/25 02:16:22;;;;;;;2.58;1.60;;;20.10;58.90;;;;;;5132057;27;20031;-65
2022/11/25 02:18:49;;;;;;;2.80;1.60;;;20.10;58.90;;;;;;5122989;27;20498;-65
2022/11/25 02:21:23;;;;;;;2.45;1.50;;;20.10;58.80;;;;;;5118673;27;20439;-65
2022/11/25 02:24:14;;;;;;;2.28;1.42;;;20.10;58.90;;;;;;5122561;27;20026;-65
2022/11/25 02:26:40;;;;;;;2.22;1.48;;;20.00;58.90;;;;;;5123205;27;20027;-65
2022/11/25 02:29:06;;;;;;;3.00;1.85;;;20.00;58.80;;;;;;5119072;27;20076;-65
2022/11/25 02:31:31;;;;;;;2.50;1.85;;;20.00;58.90;;;;;;5122035;27;20091;-64
2022/11/25 02:33:57;;;;;;;2.20;1.58;;;20.00;58.90;;;;;;5123829;27;20062;-65
2022/11/25 02:36:23;;;;;;;2.30;1.60;;;20.00;58.80;;;;;;5123068;27;20019;-65
2022/11/25 02:38:57;;;;;;;2.20;1.58;;;20.00;58.80;;;;;;5123037;27;20032;-65
2022/11/25 02:41:36;;;;;;;3.13;1.60;;;20.00;58.90;;;;;;5130870;27;20505;-65
2022/11/25 02:44:02;;;;;;;1.95;1.27;;;20.00;58.90;;;;;;5123590;27;20069;-65
2022/11/25 02:46:29;;;;;;;2.85;1.60;;;20.00;58.90;;;;;;5124142;27;20035;-65
2022/11/25 02:48:56;;;;;;;2.45;1.67;;;20.00;58.90;;;;;;5122985;27;20027;-65
2022/11/25 02:51:24;;;;;;;2.35;1.40;;;20.00;58.90;;;;;;5119419;27;20015;-66
2022/11/25 02:53:50;;;;;;;2.60;1.45;;;20.00;58.90;;;;;;5117337;27;20070;-64
2022/11/25 02:56:18;;;;;;;2.45;1.50;;;20.00;58.90;;;;;;5122220;27;20498;-65
2022/11/25 02:58:43;;;;;;;2.10;1.30;;;20.00;58.90;;;;;;5123705;27;20118;-64
2022/11/25 03:01:09;;;;;;;2.20;1.40;;;20.00;59.40;;;;;;5120108;27;20550;-65
2022/11/25 03:03:36;;;;;;;2.20;1.40;;;20.00;58.90;;;;;;5116132;27;20053;-64
2022/11/25 03:06:02;;;;;;;2.33;1.40;;;20.00;58.90;;;;;;5122182;27;20024;-65
2022/11/25 03:08:28;;;;;;;2.30;1.50;;;19.90;58.90;;;;;;5121395;27;20034;-64
2022/11/25 03:10:53;;;;;;;2.28;1.50;;;19.90;58.90;;;;;;5128932;27;20043;-64
2022/11/25 03:13:19;;;;;;;2.85;1.85;;;19.90;58.90;;;;;;5120537;27;20115;-64
2022/11/25 03:15:45;;;;;;;2.30;1.48;;;19.90;58.90;;;;;;5120731;27;20471;-64
2022/11/25 03:18:11;;;;;;;2.05;1.48;;;19.90;58.90;;;;;;5119612;27;20034;-65
2022/11/25 03:20:37;;;;;;;2.33;1.45;;;19.90;58.90;;;;;;5121329;27;20023;-64
2022/11/25 03:23:04;;;;;;;2.35;1.42;;;19.90;58.90;;;;;;5116703;27;20024;-64
2022/11/25 03:25:30;;;;;;;2.50;1.50;;;19.90;59.00;;;;;;5114455;27;20150;-64
2022/11/25 03:27:56;;;;;;;2.13;1.40;;;19.90;59.00;;;;;;5117848;27;20098;-64
2022/11/25 03:30:26;;;;;;;2.40;1.50;;;19.80;59.00;;;;;;5121532;27;20024;-64
2022/11/25 03:32:51;;;;;;;2.55;1.55;;;19.90;59.00;;;;;;5120564;27;20028;-64
2022/11/25 03:35:17;;;;;;;2.67;1.67;;;19.90;59.00;;;;;;5122356;27;20046;-64
2022/11/25 03:37:43;;;;;;;2.40;1.33;;;19.80;59.00;;;;;;5121401;27;20591;-66
2022/11/25 03:40:11;;;;;;;2.65;1.42;;;19.80;59.00;;;;;;5119524;27;20034;-64
2022/11/25 03:42:37;;;;;;;2.20;1.45;;;19.80;59.00;;;;;;5128355;27;20401;-64
2022/11/25 03:45:04;;;;;;;1.90;1.30;;;19.80;59.00;;;;;;5120909;27;20023;-65
2022/11/25 03:47:30;;;;;;;2.55;1.67;;;19.80;59.00;;;;;;5128987;27;20023;-65
2022/11/25 03:49:56;;;;;;;2.10;1.40;;;19.80;59.00;;;;;;5122453;27;20038;-64
2022/11/25 03:52:21;;;;;;;2.20;1.40;;;19.80;59.00;;;;;;5117193;27;20082;-64
2022/11/25 03:54:47;;;;;;;1.90;1.30;;;19.80;59.00;;;;;;5117629;27;20034;-64
2022/11/25 03:57:13;;;;;;;2.20;1.42;;;19.80;59.00;;;;;;5117378;27;20443;-64
2022/11/25 03:59:38;;;;;;;2.08;1.45;;;19.80;59.00;;;;;;5116718;27;20028;-65
2022/11/25 04:02:04;;;;;;;1.80;1.40;;;19.80;59.00;;;;;;5117903;27;20104;-66
2022/11/25 04:04:30;;;;;;;2.28;1.50;;;19.80;59.00;;;;;;5121924;27;20023;-65
2022/11/25 04:06:55;;;;;;;2.20;1.40;;;19.80;59.00;;;;;;5121207;27;20051;-64
2022/11/25 04:09:21;;;;;;;2.10;1.45;;;19.70;59.00;;;;;;5122516;27;20559;-64
2022/11/25 04:14:31;;;;;;;1.95;1.50;;;19.70;59.00;;;;;;5119399;27;20073;-65
2022/11/25 04:16:57;;;;;;;2.45;1.50;;;19.70;59.00;;;;;;5121325;27;20031;-65
2022/11/25 04:19:22;;;;;;;2.22;1.60;;;19.70;59.00;;;;;;5118330;27;20045;-65
2022/11/25 04:21:48;;;;;;;2.15;1.48;;;19.70;59.00;;;;;;5119501;27;20062;-65
2022/11/25 04:24:14;;;;;;;1.70;1.30;;;19.70;59.00;;;;;;5119325;27;20367;-65
2022/11/25 04:26:40;;;;;;;2.00;1.30;;;19.70;59.00;;;;;;5122270;27;20030;-65
2022/11/25 04:29:05;;;;;;;2.38;1.38;;;19.70;59.00;;;;;;5121508;28;20421;-65
2022/11/25 04:31:31;;;;;;;1.92;1.30;;;19.70;59.00;;;;;;5118722;28;20091;-65
2022/11/25 04:33:57;;;;;;;2.40;1.30;;;19.70;59.00;;;;;;5120730;28;20039;-66
2022/11/25 04:36:22;;;;;;;2.08;1.40;;;19.70;59.00;;;;;;5119090;28;20028;-64
2022/11/25 04:38:48;;;;;;;1.65;1.20;;;19.70;59.00;;;;;;5120189;28;20432;-65
2022/11/25 04:41:14;;;;;;;1.55;1.20;;;19.70;59.00;;;;;;5123570;28;20055;-64
2022/11/25 04:43:39;;;;;;;1.92;1.30;;;19.70;59.00;;;;;;5120970;28;20031;-65
2022/11/25 04:46:05;;;;;;;2.17;1.40;;;19.70;59.10;;;;;;5120007;28;20107;-66
2022/11/25 04:48:31;;;;;;;1.90;1.25;;;19.70;59.00;;;;;;5120822;28;20477;-65
2022/11/25 04:50:57;;;;;;;1.75;1.20;;;19.70;59.10;;;;;;5122075;28;20098;-65
2022/11/25 04:53:22;;;;;;;2.20;1.30;;;19.70;59.10;;;;;;5122137;28;20099;-66
2022/11/25 04:55:48;;;;;;;2.15;1.50;;;19.60;59.20;;;;;;5118310;27;20039;-66
2022/11/25 04:59:38;;;;;;;2.10;1.30;;;19.70;59.30;;;;;;5125618;27;20038;-65
2022/11/25 05:01:00;;;;;;;1.95;1.23;;;19.60;59.40;;;;;;5122239;27;20024;-66
2022/11/25 05:03:26;;;;;;;2.03;1.40;;;19.70;59.40;;;;;;5127770;27;20098;-65
2022/11/25 05:05:51;;;;;;;2.45;1.48;;;19.60;59.40;;;;;;5126421;27;20156;-65
2022/11/25 05:08:17;;;;;;;2.20;1.30;;;19.60;59.40;;;;;;5130720;27;20027;-65
2022/11/25 05:10:43;;;;;;;1.67;1.20;;;19.60;59.50;;;;;;5123715;27;20051;-65
2022/11/25 05:13:08;;;;;;;2.28;1.45;;;19.70;59.50;;;;;;5124686;27;20027;-65
2022/11/25 05:15:34;;;;;;;1.90;1.20;;;19.60;59.50;;;;;;5124414;27;20023;-65
2022/11/25 05:17:59;;;;;;;2.17;1.50;;;19.60;59.50;;;;;;5123436;27;20389;-65
2022/11/25 05:20:25;;;;;;;2.05;1.33;;;19.60;59.50;;;;;;5119988;27;20463;-66
2022/11/25 05:22:51;;;;;;;2.15;1.40;;;19.60;59.60;;;;;;5122265;27;20071;-64
2022/11/25 05:25:16;;;;;;;2.20;1.40;;;19.60;59.60;;;;;;5127682;27;20106;-65
2022/11/25 05:27:42;;;;;;;2.10;1.40;;;19.60;59.60;;;;;;5127412;27;20025;-64
2022/11/25 05:30:08;;;;;;;3.42;1.30;;;19.60;59.70;;;;;;5121124;27;20059;-65
2022/11/25 05:32:34;;;;;;;2.28;1.55;;;19.60;59.70;;;;;;5124896;27;20394;-64
2022/11/25 05:34:59;;;;;;;2.20;1.40;;;19.60;59.70;;;;;;5125558;27;20031;-64
2022/11/25 05:37:25;;;;;;;2.75;1.48;;;19.60;59.70;;;;;;5124016;27;20028;-66
2022/11/25 05:39:51;;;;;;;2.13;1.40;;;19.60;59.70;;;;;;5124699;27;20111;-65
2022/11/25 05:42:16;;;;;;;2.10;1.48;;;19.60;59.80;;;;;;5124507;27;20023;-64
2022/11/25 05:44:42;;;;;;;2.05;1.20;;;19.60;59.70;;;;;;5125882;27;20019;-66
2022/11/25 05:47:08;;;;;;;2.13;1.30;;;19.60;59.80;;;;;;5122749;27;20035;-64
2022/11/25 05:49:33;;;;;;;1.90;1.30;;;19.60;59.80;;;;;;5121874;27;20020;-65
2022/11/25 05:52:00;;;;;;;2.00;1.52;;;19.60;60.00;;;;;;5124983;27;20048;-64
2022/11/25 05:54:25;;;;;;;2.00;1.30;;;19.60;59.80;;;;;;5123555;27;20024;-65
2022/11/25 05:56:51;;;;;;;1.83;1.33;;;19.60;59.90;;;;;;5123356;27;20080;-65
2022/11/25 05:59:17;;;;;;;2.95;1.33;;;19.60;59.90;;;;;;5124417;27;20027;-65
2022/11/25 06:01:42;;;;;;;3.50;1.52;;;19.60;59.90;;;;;;5129891;27;20027;-66
2022/11/25 06:04:09;;;;;;;1.98;1.40;;;19.60;59.90;;;;;;5121661;27;20043;-64
2022/11/25 06:06:34;;;;;;;2.05;1.27;;;19.60;59.90;;;;;;5119283;27;20019;-64
2022/11/25 06:09:00;;;;;;;1.58;1.20;;;19.60;60.00;;;;;;5123716;27;20030;-66
2022/11/25 06:11:26;;;;;;;2.60;1.30;;;19.60;60.00;;;;;;5125050;27;20016;-66
2022/11/25 06:13:54;;;;;;;2.00;1.40;;;19.60;60.40;;;;;;5129952;27;20386;-64
2022/11/25 06:16:22;;;;;;;2.58;1.30;;;19.70;61.00;;;;;;5129666;27;20042;-65
2022/11/25 06:18:48;;;;;;;3.25;1.50;;;19.80;61.00;;;;;;5129719;27;20130;-66
2022/11/25 06:21:14;;;;;;;2.40;1.58;;;20.00;60.70;;;;;;5128751;27;20035;-65
2022/11/25 06:23:40;;;;;;;2.13;1.30;;;20.20;60.50;;;;;;5126183;27;20072;-65
2022/11/25 06:26:18;;;;;;;1.98;1.30;;;20.30;60.10;;;;;;5126412;27;20024;-65
2022/11/25 06:28:44;;;;;;;3.10;1.70;;;20.50;59.70;;;;;;5125666;27;20068;-64
2022/11/25 06:31:16;;;;;;;2.65;1.70;;;20.60;59.40;;;;;;5127075;27;20019;-66
2022/11/25 06:33:44;;;;;;;2.35;1.33;;;20.60;59.00;;;;;;5126948;27;20036;-65
2022/11/25 06:36:16;;;;;;;2.28;1.35;;;20.80;58.70;;;;;;5127453;27;20089;-65
2022/11/25 06:38:52;;;;;;;2.05;1.40;;;20.90;58.40;;;;;;5127391;27;20058;-65
2022/11/25 06:41:19;;;;;;;4.35;1.63;;;21.10;58.60;;;;;;5126731;27;20047;-65
2022/11/25 06:43:44;;;;;;;2.53;1.60;;;21.20;57.60;;;;;;5121129;27;20070;-65
2022/11/25 06:46:15;;;;;;;2.10;1.27;;;21.40;57.10;;;;;;5116690;27;20438;-65
2022/11/25 06:48:41;;;;;;;2.92;1.73;;;21.50;57.80;;;;;;5126139;27;20087;-64
2022/11/25 06:51:10;;;;;;;2.08;1.30;;;21.60;57.00;;;;;;5117953;27;20031;-65
2022/11/25 06:53:36;;;;;;;3.03;1.33;;;21.80;56.90;;;;;;5123227;27;20490;-65
2022/11/25 06:56:12;;;;;;;2.30;1.30;;;21.90;56.60;;;;;;5124364;27;20260;-66
2022/11/25 06:58:39;;;;;;;1.95;1.30;;;22.00;56.40;;;;;;5124681;27;20066;-65
2022/11/25 07:01:25;;;;;;;2.65;1.30;;;22.10;56.20;;;;;;5123942;27;20030;-66
2022/11/25 07:03:54;;;;;;;3.28;1.40;;;22.20;55.80;;;;;;5119814;27;20031;-65
2022/11/25 07:06:20;;;;;;;1.88;1.42;;;22.30;55.30;;;;;;5129861;27;20038;-65
2022/11/25 07:08:46;;;;;;;2.08;1.38;;;22.30;55.20;;;;;;5122566;27;20513;-66
2022/11/25 07:11:17;;;;;;;2.00;1.40;;;22.20;55.40;;;;;;5121627;27;20390;-66
2022/11/25 07:13:43;;;;;;;2.55;1.45;;;22.10;55.30;;;;;;5122623;27;20023;-65
2022/11/25 07:16:10;;;;;;;2.50;1.67;;;22.10;55.50;;;;;;5119394;27;20035;-66
2022/11/25 07:18:37;;;;;;;3.42;1.50;;;22.20;55.70;;;;;;5122643;27;20477;-65
2022/11/25 07:21:09;;;;;;;1.73;1.38;;;22.30;55.40;;;;;;5120769;27;20036;-65
2022/11/25 07:23:36;;;;;;;1.60;1.20;;;22.50;55.20;;;;;;5117997;27;20485;-65
2022/11/25 07:26:05;;;;;;;2.83;1.50;;;22.60;54.70;;;;;;5120606;27;20019;-66
2022/11/25 07:28:31;;;;;;;3.00;1.48;;;22.60;54.50;;;;;;5118168;27;20497;-65
2022/11/25 07:31:04;;;;;;;2.67;1.40;;;22.50;54.60;;;;;;5121249;27;20031;-65
2022/11/25 07:33:29;;;;;;;2.72;1.65;;;22.50;54.60;;;;;;5118985;27;20019;-64
2022/11/25 07:35:55;;;;;;;2.15;1.40;;;22.40;54.60;;;;;;5126305;27;20080;-64
2022/11/25 07:38:21;;;;;;;2.40;1.20;;;22.40;55.00;;;;;;5116384;27;20138;-65
2022/11/25 07:40:49;;;;;;;2.00;1.38;;;22.50;54.70;;;;;;5126431;27;20119;-67
2022/11/25 07:43:14;;;;;;;3.30;1.48;;;22.50;54.50;;;;;;5117619;27;20027;-64
2022/11/25 07:45:40;;;;;;;2.58;1.52;;;22.50;54.40;;;;;;5115986;27;20387;-65
2022/11/25 07:48:05;;;;;;;2.60;1.40;;;22.50;54.60;;;;;;5119102;27;20099;-65
2022/11/25 07:50:31;;;;;;;2.63;1.52;;;22.50;54.60;;;;;;5120603;27;20024;-65
2022/11/25 07:52:57;;;;;;;1.95;1.35;;;22.40;54.40;;;;;;5120097;27;20117;-65
2022/11/25 07:55:23;;;;;;;2.22;1.30;;;22.40;54.50;;;;;;5120952;27;20433;-65
2022/11/25 07:57:48;;;;;;;2.70;1.50;;;22.30;54.50;;;;;;5121271;27;20027;-65
2022/11/25 08:00:14;;;;;;;4.05;1.40;;;22.30;54.70;;;;;;5121461;27;20496;-65
2022/11/25 08:02:40;;;;;;;2.35;1.45;;;22.30;54.80;;;;;;5124355;27;20567;-65
2022/11/25 08:05:06;;;;;;;3.05;1.20;;;22.30;54.90;;;;;;5120549;27;20098;-65
2022/11/25 08:07:32;;;;;;;1.80;1.20;;;22.30;55.10;;;;;;5122620;27;20122;-66
2022/11/25 08:09:57;;;;;;;1.92;1.10;;;22.30;55.00;;;;;;5120475;27;20130;-66
2022/11/25 08:12:23;;;;;;;1.88;1.20;;;22.30;55.10;;;;;;5116876;27;20537;-65
2022/11/25 08:14:49;;;;;;;1.70;1.15;;;22.30;55.00;;;;;;5114056;27;20068;-66
2022/11/25 08:17:14;;;;;;;1.70;1.10;;;22.40;55.00;;;;;;5120826;27;20050;-65
2022/11/25 08:19:40;;;;;;;1.55;1.13;;;22.40;54.90;;;;;;5117800;27;20027;-65
2022/11/25 08:22:05;;;;;;;1.73;1.08;;;22.40;54.80;;;;;;5117590;27;20390;-65
2022/11/25 08:24:31;;;;;;;1.83;1.30;;;22.40;54.80;;;;;;5118072;27;20069;-65
2022/11/25 08:27:00;;;;;;;1.77;1.17;;;22.40;55.10;;;;;;5121435;27;20436;-65
2022/11/25 08:29:25;;;;;;;2.47;1.10;;;22.40;55.10;;;;;;5120994;27;20397;-64
2022/11/25 08:31:51;;;;;;;3.10;1.20;;;22.40;55.10;;;;;;5120174;27;20039;-66
2022/11/25 08:34:22;;;;;;;1.95;1.10;;;22.40;55.10;;;;;;5119781;28;20028;-66
2022/11/25 08:36:48;;;;;;;2.17;1.13;;;22.40;55.10;;;;;;5121755;28;20509;-66
2022/11/25 08:39:14;;;;;;;1.63;0.93;;;22.40;55.10;;;;;;5122149;28;20028;-65
2022/11/25 08:41:40;;;;;;;2.03;1.20;;;22.40;55.10;;;;;;5120802;28;20038;-66
2022/11/25 08:44:08;;;;;;;2.03;1.10;;;22.40;55.20;;;;;;5121131;28;20463;-66
2022/11/25 08:46:36;;;;;;;1.90;1.20;;;22.40;55.10;;;;;;5120325;28;20023;-65
2022/11/25 08:49:03;;;;;;;2.20;1.20;;;22.40;55.10;;;;;;5119860;28;20022;-65
2022/11/25 08:51:31;;;;;;;1.92;1.10;;;22.40;55.10;;;;;;5116318;28;20463;-66
2022/11/25 08:53:57;;;;;;;1.30;1.00;;;22.40;55.20;;;;;;5119765;28;20543;-66
2022/11/25 08:56:24;;;;;;;1.65;1.10;;;22.40;55.10;;;;;;5119993;28;20028;-65
2022/11/25 08:58:50;;;;;;;1.55;1.20;;;22.40;55.10;;;;;;5115696;28;20027;-65
2022/11/25 09:01:17;;;;;;;1.42;1.00;;;22.40;55.00;;;;;;5128630;28;20019;-65
2022/11/25 09:03:45;;;;;;;2.13;1.35;;;22.40;55.50;;;;;;5114695;28;20026;-65
2022/11/25 09:06:12;;;;;;;1.85;1.17;;;22.40;54.90;;;;;;5114811;28;20387;-66
2022/11/25 09:08:40;;;;;;;2.03;1.30;;;22.50;55.00;;;;;;5118862;28;20031;-66
2022/11/25 09:11:07;;;;;;;1.83;1.17;;;22.40;55.40;;;;;;5119814;28;20470;-67
2022/11/25 09:13:33;;;;;;;2.00;1.13;;;22.50;54.90;;;;;;5118929;28;20023;-66
2022/11/25 09:16:00;;;;;;;1.70;1.20;;;22.40;54.90;;;;;;5121339;28;20027;-65
2022/11/25 09:18:28;;;;;;;1.27;1.00;;;22.40;55.00;;;;;;5120391;28;20435;-64
2022/11/25 09:20:54;;;;;;;2.22;1.20;;;22.40;55.00;;;;;;5120922;28;20485;-64
2022/11/25 09:23:22;;;;;;;4.65;1.20;;;22.40;55.20;;;;;;5128441;28;20027;-67
2022/11/25 09:25:55;;;;;;;1.88;1.20;;;22.40;55.90;;;;;;5117911;28;20408;-64
2022/11/25 09:28:22;;;;;;;1.98;1.00;;;22.40;56.40;;;;;;5117948;28;20364;-65
2022/11/25 09:30:48;;;;;;;1.70;1.05;;;22.50;56.60;;;;;;5116163;28;20394;-65
2022/11/25 09:33:14;;;;;;;3.03;1.20;;;22.50;56.40;;;;;;5118405;28;20902;-64
2022/11/25 09:35:40;;;;;;;3.45;1.20;;;22.50;56.50;;;;;;5122253;28;20019;-66
2022/11/25 09:38:05;;;;;;;1.70;1.13;;;22.50;56.40;;;;;;5120620;28;20020;-65
2022/11/25 09:40:58;;;;;;;3.33;1.08;;;22.50;55.90;;;;;;5115579;27;20028;-64
2022/11/25 09:47:03;;;;;;;2.25;1.10;;;22.50;56.20;;;;;;5122893;27;20054;-64
2022/11/25 09:50:05;;;;;;;2.15;1.00;;;22.50;57.00;;;;;;5122463;27;20019;-64
2022/11/25 09:52:49;;;;;;;2.88;0.98;;;22.50;56.80;;;;;;5120308;27;20536;-64
2022/11/25 09:55:18;;;;;;;2.20;1.05;;;22.50;55.90;;;;;;5120600;27;20023;-64
2022/11/25 09:57:59;;;;;;;1.55;1.00;;;22.50;55.80;;;;;;5123852;27;20145;-65
2022/11/25 10:00:31;;;;;;;1.20;0.98;;;22.60;56.20;;;;;;5129911;27;20386;-64
2022/11/25 10:03:15;;;;;;;2.10;1.20;;;22.50;55.50;;;;;;5120107;27;20028;-64
2022/11/25 10:05:46;;;;;;;1.40;1.00;;;22.50;55.50;;;;;;5120221;27;20080;-64
2022/11/25 10:08:17;;;;;;;2.75;1.10;;;22.50;55.50;;;;;;5123387;27;20379;-65
2022/11/25 10:10:47;;;;;;;2.00;1.10;;;22.50;55.40;;;;;;5122153;27;20036;-65
2022/11/25 10:13:52;;;;;;;1.80;1.20;;;22.50;55.70;;;;;;5124072;27;20042;-66
2022/11/25 10:16:37;;;;;;;1.73;1.10;;;22.50;56.40;;;;;;5121476;27;20074;-65
2022/11/25 10:19:23;;;;;;;2.30;1.20;;;22.60;56.30;;;;;;5124501;27;20047;-66
2022/11/25 10:21:50;;;;;;;3.17;1.48;;;22.60;56.00;;;;;;5123515;27;20478;-65
2022/11/25 10:24:17;;;;;;;2.15;1.35;;;22.50;55.10;;;;;;5120672;27;20028;-64
2022/11/25 10:26:46;;;;;;;1.98;1.20;;;22.60;55.20;;;;;;5121332;27;20459;-67
2022/11/25 10:29:12;;;;;;;1.85;1.10;;;22.60;55.00;;;;;;5122253;27;20023;-64
2022/11/25 10:31:40;;;;;;;1.75;1.10;;;22.60;55.20;;;;;;5119728;27;20034;-64
2022/11/25 10:34:49;;;;;;;2.03;1.20;;;22.60;55.00;;;;;;5120951;27;20114;-65
2022/11/25 10:37:32;;;;;;;1.92;1.10;;;22.60;55.20;;;;;;5114454;27;20070;-65
2022/11/25 10:39:57;;;;;;;1.80;1.20;;;22.60;55.00;;;;;;5118937;27;20027;-64
2022/11/25 10:42:26;;;;;;;2.20;1.30;;;22.60;55.10;;;;;;5121952;27;20371;-64
2022/11/25 10:44:53;;;;;;;2.10;1.30;;;22.50;55.00;;;;;;5121758;27;20016;-65
2022/11/25 10:47:38;;;;;;;1.92;1.20;;;22.60;55.00;;;;;;5124777;27;20023;-65
2022/11/25 10:50:25;;;;;;;1.98;1.20;;;22.60;54.80;;;;;;5121249;27;20470;-64
2022/11/25 10:52:59;;;;;;;1.80;1.17;;;22.50;54.90;;;;;;5117993;27;20078;-65
2022/11/25 10:55:27;;;;;;;1.80;1.20;;;22.50;55.30;;;;;;5118476;27;20034;-64
2022/11/25 10:57:54;;;;;;;3.90;1.35;;;22.50;55.10;;;;;;5120955;27;20470;-64
2022/11/25 11:00:33;;;;;;;2.63;1.33;;;22.60;55.10;;;;;;5119339;27;20455;-65
2022/11/25 11:03:20;;;;;;;2.22;1.20;;;22.50;54.80;;;;;;5122994;27;20039;-65
2022/11/25 11:05:48;;;;;;;3.40;1.30;;;22.60;54.80;;;;;;5121282;27;20039;-67
2022/11/25 11:08:23;;;;;;;1.90;1.35;;;22.60;54.70;;;;;;5119318;27;20019;-65
2022/11/25 11:11:24;;;;;;;2.30;1.42;;;22.50;54.50;;;;;;5122377;27;20490;-69
2022/11/25 11:14:12;;;;;;;2.10;1.30;;;22.50;54.30;;;;;;5042766;28;20029;-67
2022/11/25 11:16:41;;;;;;;2.42;1.40;;;22.50;54.40;;;;;;5119044;27;20127;-67
2022/11/25 11:19:26;;;;;;;4.57;1.55;;;22.50;54.40;;;;;;5127793;27;20034;-67
2022/11/25 11:21:53;;;;;;;2.13;1.23;;;22.50;54.40;;;;;;5130734;27;20035;-67
2022/11/25 11:24:36;;;;;;;2.97;1.40;;;22.40;55.10;;;;;;5125461;27;20042;-66
2022/11/25 11:27:15;;;;;;;2.33;1.20;;;22.40;54.60;;;;;;5121568;27;20054;-67
2022/11/25 11:29:41;;;;;;;;;;;22.40;54.70;;;;;;5125934;27;20045;-66
2022/11/25 11:32:18;;;;;;;1.92;1.30;;;22.40;54.90;;;;;;5123909;27;19908;-66
2022/11/25 11:35:04;;;;;;;1.77;1.27;;;22.40;54.90;;;;;;5121880;27;20474;-68
2022/11/25 11:37:41;;;;;;;2.33;1.45;;;22.40;54.80;;;;;;5120206;27;20035;-67
2022/11/25 11:40:15;;;;;;;2.47;1.50;;;22.40;54.80;;;;;;5121903;27;20412;-66
2022/11/25 11:43:19;;;;;;;2.50;1.60;;;22.40;54.80;;;;;;5124869;27;20046;-67
2022/11/25 11:45:54;;;;;;;2.33;1.20;;;22.40;54.80;;;;;;5119178;27;20020;-67
2022/11/25 11:48:31;;;;;;;2.13;1.35;;;22.30;55.00;;;;;;5121151;27;20488;-67
2022/11/25 11:51:02;;;;;;;2.15;1.27;;;22.30;55.30;;;;;;5121183;27;20026;-66
2022/11/25 11:53:31;;;;;;;1.75;1.10;;;22.30;55.20;;;;;;5122681;27;20486;-66
2022/11/25 11:56:26;;;;;;;1.80;1.20;;;22.30;55.40;;;;;;5122515;27;20027;-67
2022/11/25 11:59:06;;;;;;;2.28;1.10;;;22.40;55.40;;;;;;5117027;27;20479;-66
2022/11/25 12:01:46;;;;;;;2.45;1.60;;;22.30;55.20;;;;;;5119998;27;20356;-67
2022/11/25 12:04:25;;;;;;;2.40;1.30;;;22.40;55.20;;;;;;5121648;27;20039;-66
2022/11/25 12:07:06;;;;;;;1.83;1.00;;;22.40;55.60;;;;;;5120218;27;20100;-67
2022/11/25 12:09:36;;;;;;;1.90;1.20;;;22.40;55.30;;;;;;5116850;27;20586;-66
2022/11/25 12:12:04;;;;;;;1.63;1.20;;;22.40;55.30;;;;;;5122050;27;20510;-67
2022/11/25 12:15:02;;;;;;;2.83;1.40;;;22.40;55.30;;;;;;5118821;27;20919;-65
2022/11/25 12:17:46;;;;;;;2.00;1.20;;;22.40;55.30;;;;;;5115053;27;20545;-67
2022/11/25 12:20:55;;;;;;;3.00;1.70;;;22.40;55.40;;;;;;5119878;27;20554;-66
2022/11/25 12:23:47;;;;;;;2.40;1.38;;;22.40;55.30;;;;;;5048823;28;20073;-66
2022/11/25 12:26:21;;;;;;;1.90;1.13;;;22.40;55.20;;;;;;5048480;28;20048;-67
2022/11/25 12:29:04;;;;;;;2.22;1.25;;;22.40;55.30;;;;;;5097150;27;20028;-67
2022/11/25 12:31:44;;;;;;;2.28;1.25;;;22.40;55.70;;;;;;5121177;27;20387;-68
2022/11/25 12:34:20;;;;;;;2.28;1.30;;;22.40;55.70;;;;;;5121110;27;20083;-65
2022/11/25 12:36:47;;;;;;;2.10;1.33;;;22.40;55.50;;;;;;5119284;27;20027;-67
2022/11/25 12:39:36;;;;;;;2.55;1.30;;;22.30;55.60;;;;;;5122445;27;20051;-65
2022/11/25 12:42:19;;;;;;;2.53;1.50;;;22.40;55.70;;;;;;5119184;28;20032;-65
2022/11/25 12:45:05;;;;;;;2.65;1.40;;;22.40;55.50;;;;;;5123125;28;20026;-66
2022/11/25 12:47:32;;;;;;;3.17;1.10;;;22.40;55.50;;;;;;5121544;28;20028;-66
2022/11/25 12:49:58;;;;;;;2.97;1.17;;;22.40;55.70;;;;;;5119623;28;20609;-66
2022/11/25 12:52:41;;;;;;;2.67;1.27;;;22.40;55.90;;;;;;5118341;28;20024;-66
2022/11/25 12:55:17;;;;;;;2.30;1.30;;;22.40;56.10;;;;;;5123703;28;20153;-67
2022/11/25 12:58:22;;;;;;;2.15;1.25;;;22.40;56.00;;;;;;5119162;28;20027;-67
2022/11/25 13:01:02;;;;;;;2.28;1.20;;;22.40;56.10;;;;;;5120595;28;20497;-66
2022/11/25 13:03:49;;;;;;;2.42;1.10;;;22.40;56.00;;;;;;5121156;28;20070;-66
2022/11/25 13:06:37;;;;;;;2.17;1.35;;;22.50;55.90;;;;;;5124843;28;20019;-68
2022/11/25 13:09:29;;;;;;;3.58;1.60;;;22.50;55.70;;;;;;5123229;28;20015;-64
2022/11/25 13:12:01;;;;;;;3.05;1.50;;;22.50;55.50;;;;;;5128863;28;20069;-66